createdAt,value
2019-05-14T00:00:18.620Z,99.90
2019-05-14T00:02:48.843Z,99.90
2019-05-14T00:05:18.996Z,99.90
2019-05-14T00:07:49.081Z,99.90
2019-05-14T00:10:19.190Z,99.90
2019-05-14T00:12:51.108Z,99.90
2019-05-14T00:15:21.663Z,99.90
2019-05-14T00:17:52.348Z,99.90
2019-05-14T00:20:22.682Z,99.90
2019-05-14T00:22:53.779Z,99.90
2019-05-14T00:25:23.999Z,99.90
2019-05-14T00:27:54.101Z,99.90
2019-05-14T00:30:25.257Z,99.90
2019-05-14T00:32:55.504Z,99.90
2019-05-14T00:35:25.727Z,99.90
2019-05-14T00:37:55.811Z,99.90
2019-05-14T00:40:25.898Z,99.90
2019-05-14T00:42:56.159Z,99.90
2019-05-14T00:45:26.321Z,99.90
2019-05-14T00:47:56.565Z,99.90
2019-05-14T00:50:26.912Z,99.90
2019-05-14T00:52:57.058Z,99.90
2019-05-14T00:55:27.087Z,99.90
2019-05-14T00:57:57.240Z,99.90
2019-05-14T01:00:27.548Z,99.90
2019-05-14T01:02:57.616Z,99.90
2019-05-14T01:05:27.849Z,99.90
2019-05-14T01:07:59.015Z,99.90
2019-05-14T01:10:31.163Z,99.90
2019-05-14T01:13:01.298Z,99.90
2019-05-14T01:15:32.278Z,99.90
2019-05-14T01:18:05.592Z,99.90
2019-05-14T01:20:35.839Z,99.90
2019-05-14T01:23:05.999Z,99.90
2019-05-14T01:25:36.171Z,99.90
2019-05-14T01:28:06.334Z,99.90
2019-05-14T01:30:36.641Z,99.90
2019-05-14T01:33:06.867Z,99.90
2019-05-14T01:35:37.024Z,99.90
2019-05-14T01:38:07.180Z,99.90
2019-05-14T01:40:37.337Z,99.90
2019-05-14T01:43:07.492Z,99.90
2019-05-14T01:45:37.589Z,99.90
2019-05-14T01:48:07.812Z,99.90
2019-05-14T01:50:37.975Z,99.90
2019-05-14T01:53:08.206Z,99.90
2019-05-14T01:55:38.296Z,99.90
2019-05-14T01:58:08.460Z,99.90
2019-05-14T02:00:38.645Z,99.90
2019-05-14T02:03:08.864Z,99.90
2019-05-14T02:05:38.892Z,99.90
2019-05-14T02:08:09.200Z,99.90
2019-05-14T02:10:41.770Z,99.90
2019-05-14T02:13:12.249Z,99.90
2019-05-14T02:15:43.071Z,99.90
2019-05-14T02:18:13.275Z,99.90
2019-05-14T02:20:43.440Z,99.90
2019-05-14T02:23:13.660Z,99.90
2019-05-14T02:25:43.891Z,99.90
2019-05-14T02:28:14.120Z,99.90
2019-05-14T02:30:55.958Z,99.90
2019-05-14T02:33:19.085Z,99.90
2019-05-14T02:35:49.384Z,99.90
2019-05-14T02:38:20.881Z,99.90
2019-05-14T02:40:51.160Z,99.90
2019-05-14T02:43:21.291Z,99.90
2019-05-14T02:46:05.944Z,99.90
2019-05-14T02:48:23.633Z,99.90
2019-05-14T02:50:53.807Z,99.90
2019-05-14T02:53:24.101Z,99.90
2019-05-14T02:55:54.302Z,99.90
2019-05-14T02:58:24.504Z,99.90
2019-05-14T03:00:54.726Z,99.90
2019-05-14T03:03:24.965Z,99.90
2019-05-14T03:05:56.162Z,99.90
2019-05-14T03:08:26.393Z,99.90
2019-05-14T03:11:00.307Z,99.90
2019-05-14T03:13:29.732Z,99.90
2019-05-14T03:16:19.077Z,99.90
2019-05-14T03:18:32.103Z,99.90
2019-05-14T03:21:02.320Z,99.90
2019-05-14T03:23:32.561Z,99.90
2019-05-14T03:26:02.793Z,99.90
2019-05-14T03:28:33.948Z,99.90
2019-05-14T03:31:04.554Z,99.90
2019-05-14T03:33:34.808Z,99.90
2019-05-14T03:36:09.127Z,99.90
2019-05-14T03:38:39.573Z,99.90
2019-05-14T03:41:09.377Z,99.90
2019-05-14T03:43:40.455Z,99.90
2019-05-14T03:46:10.705Z,99.90
2019-05-14T03:48:40.875Z,99.90
2019-05-14T03:51:11.044Z,99.90
2019-05-14T03:53:55.926Z,99.90
2019-05-14T03:56:13.153Z,99.90
2019-05-14T03:58:43.307Z,99.90
2019-05-14T04:01:13.966Z,99.90
2019-05-14T04:03:44.354Z,99.90
2019-05-14T04:06:18.986Z,99.90
2019-05-14T04:08:49.759Z,99.90
2019-05-14T04:11:22.345Z,99.90
2019-05-14T04:13:55.066Z,99.90
2019-05-14T04:16:29.253Z,99.90
2019-05-14T04:19:02.348Z,99.90
2019-05-14T04:21:32.970Z,99.90
2019-05-14T04:24:04.383Z,99.90
2019-05-14T04:26:53.103Z,99.90
2019-05-14T04:29:10.924Z,99.90
2019-05-14T04:31:44.499Z,99.90
2019-05-14T04:34:14.839Z,99.90
2019-05-14T04:36:45.768Z,99.90
2019-05-14T04:39:15.855Z,99.90
2019-05-14T04:41:46.092Z,99.90
2019-05-14T04:44:18.921Z,99.90
2019-05-14T04:46:49.352Z,99.90
2019-05-14T04:49:20.117Z,99.90
2019-05-14T04:51:51.440Z,99.90
2019-05-14T04:54:21.608Z,99.90
2019-05-14T04:56:51.756Z,99.90
2019-05-14T04:59:21.919Z,99.90
2019-05-14T05:01:52.104Z,99.90
2019-05-14T05:04:23.278Z,99.90
2019-05-14T05:06:53.381Z,99.90
2019-05-14T05:09:23.389Z,99.90
2019-05-14T05:11:53.539Z,99.90
2019-05-14T05:14:24.018Z,99.90
2019-05-14T05:16:54.175Z,99.90
2019-05-14T05:19:24.193Z,99.90
2019-05-14T05:21:58.544Z,99.90
2019-05-14T05:24:28.776Z,99.90
2019-05-14T05:26:59.137Z,99.90
2019-05-14T05:29:29.300Z,99.90
2019-05-14T05:31:59.577Z,99.90
2019-05-14T05:34:29.820Z,99.90
2019-05-14T05:37:00.004Z,99.90
2019-05-14T05:39:30.208Z,99.90
2019-05-14T05:42:00.364Z,99.90
2019-05-14T05:44:30.598Z,99.90
2019-05-14T05:47:01.755Z,99.90
2019-05-14T05:49:31.918Z,99.90
2019-05-14T05:52:01.992Z,99.90
2019-05-14T05:54:32.180Z,99.60
2019-05-14T05:57:02.349Z,99.20
2019-05-14T05:59:32.582Z,99.10
2019-05-14T06:02:02.791Z,99.50
2019-05-14T06:04:32.905Z,99.90
2019-05-14T06:07:03.173Z,99.10
2019-05-14T06:09:33.351Z,98.40
2019-05-14T06:12:03.516Z,98.00
2019-05-14T06:14:33.668Z,97.50
2019-05-14T06:17:03.837Z,97.40
2019-05-14T06:19:33.922Z,96.40
2019-05-14T06:22:04.388Z,96.40
2019-05-14T06:24:34.663Z,95.00
2019-05-14T06:27:04.964Z,95.40
2019-05-14T06:29:35.127Z,95.80
2019-05-14T06:32:05.348Z,94.80
2019-05-14T06:34:38.025Z,94.50
2019-05-14T06:37:08.373Z,94.80
2019-05-14T06:39:39.264Z,94.30
2019-05-14T06:42:10.547Z,95.40
2019-05-14T06:44:40.767Z,95.20
2019-05-14T06:47:11.008Z,95.10
2019-05-14T06:49:41.155Z,94.80
2019-05-14T06:52:11.410Z,93.90
2019-05-14T06:54:41.624Z,93.90
2019-05-14T06:57:11.741Z,94.00
2019-05-14T06:59:41.787Z,93.00
2019-05-14T07:02:12.001Z,92.50
2019-05-14T07:04:42.237Z,92.20
2019-05-14T07:07:13.518Z,91.80
2019-05-14T07:09:43.681Z,92.10
2019-05-14T07:12:13.892Z,91.90
2019-05-14T07:14:44.069Z,91.90
2019-05-14T07:17:14.214Z,92.40
2019-05-14T07:19:44.442Z,92.50
2019-05-14T07:22:15.656Z,91.30
2019-05-14T07:24:45.822Z,90.60
2019-05-14T07:27:15.895Z,86.60
2019-05-14T07:29:46.125Z,88.40
2019-05-14T07:32:18.919Z,89.20
2019-05-14T07:34:48.350Z,89.30
2019-05-14T07:37:18.551Z,86.10
2019-05-14T07:39:48.918Z,89.30
2019-05-14T07:42:19.168Z,90.00
2019-05-14T07:44:49.258Z,91.40
2019-05-14T07:47:19.341Z,90.20
2019-05-14T07:49:49.562Z,87.30
2019-05-14T07:52:19.962Z,88.20
2019-05-14T07:54:50.188Z,90.20
2019-05-14T07:57:20.272Z,88.30
2019-05-14T07:59:50.508Z,86.00
2019-05-14T08:02:20.731Z,84.40
2019-05-14T08:04:51.884Z,82.60
2019-05-14T08:07:22.023Z,81.20
2019-05-14T08:09:52.164Z,83.10
2019-05-14T08:12:22.316Z,82.40
2019-05-14T08:15:13.071Z,80.10
2019-05-14T08:17:24.260Z,82.20
2019-05-14T08:19:54.407Z,83.50
2019-05-14T08:22:24.621Z,78.80
2019-05-14T08:24:57.991Z,80.40
2019-05-14T08:27:30.915Z,77.60
2019-05-14T08:29:59.480Z,80.10
2019-05-14T08:32:29.622Z,81.30
2019-05-14T08:34:59.699Z,81.60
2019-05-14T08:37:29.839Z,80.80
2019-05-14T08:40:00.001Z,80.50
2019-05-14T08:42:34.038Z,77.90
2019-05-14T08:45:04.948Z,75.00
2019-05-14T08:47:34.095Z,75.50
2019-05-14T08:50:04.625Z,75.50
2019-05-14T08:52:34.767Z,75.90
2019-05-14T08:55:10.946Z,71.40
2019-05-14T08:57:38.922Z,71.30
2019-05-14T09:00:13.930Z,70.40
2019-05-14T09:02:42.616Z,71.90
2019-05-14T09:05:12.854Z,70.80
2019-05-14T09:07:43.004Z,73.80
2019-05-14T09:10:13.230Z,76.60
2019-05-14T09:12:43.330Z,76.10
2019-05-14T09:15:13.635Z,75.10
2019-05-14T09:17:43.869Z,75.60
2019-05-14T09:20:14.221Z,76.50
2019-05-14T09:22:44.528Z,74.90
2019-05-14T09:25:14.932Z,72.00
2019-05-14T09:27:45.099Z,73.20
2019-05-14T09:30:15.265Z,76.40
2019-05-14T09:32:45.419Z,73.60
2019-05-14T09:35:15.636Z,75.00
2019-05-14T09:37:45.785Z,77.40
2019-05-14T09:40:16.364Z,72.70
2019-05-14T09:42:49.721Z,73.40
2019-05-14T09:45:18.887Z,71.70
2019-05-14T09:47:50.752Z,73.90
2019-05-14T09:50:23.310Z,71.70
2019-05-14T09:52:55.119Z,72.30
2019-05-14T09:55:25.436Z,73.70
2019-05-14T09:57:55.528Z,71.90
2019-05-14T10:00:25.760Z,69.70
2019-05-14T10:02:55.984Z,71.60
2019-05-14T10:05:26.219Z,73.80
2019-05-14T10:07:56.375Z,72.70
2019-05-14T10:10:48.638Z,70.70
2019-05-14T10:13:17.846Z,69.60
2019-05-14T10:15:48.612Z,68.20
2019-05-14T10:18:18.980Z,71.80
2019-05-14T10:20:49.652Z,69.80
2019-05-14T10:23:19.884Z,67.60
2019-05-14T10:25:50.099Z,67.40
2019-05-14T10:28:20.259Z,69.10
2019-05-14T10:30:50.420Z,69.70
2019-05-14T10:33:20.557Z,65.20
2019-05-14T10:35:50.864Z,67.00
2019-05-14T10:38:21.019Z,67.40
2019-05-14T10:40:51.192Z,71.80
2019-05-14T10:43:21.475Z,62.90
2019-05-14T10:45:51.631Z,73.10
2019-05-14T10:48:21.845Z,64.40
2019-05-14T10:51:01.985Z,63.20
2019-05-14T10:53:23.844Z,64.20
2019-05-14T10:55:54.207Z,65.50
2019-05-14T10:58:24.296Z,63.90
2019-05-14T11:00:54.395Z,63.50
2019-05-14T11:03:24.610Z,64.60
2019-05-14T11:05:54.740Z,64.70
2019-05-14T11:08:24.835Z,67.00
2019-05-14T11:10:55.027Z,68.00
2019-05-14T11:13:25.330Z,66.10
2019-05-14T11:15:55.554Z,65.40
2019-05-14T11:18:25.711Z,68.20
2019-05-14T11:21:16.218Z,66.90
2019-05-14T11:23:29.716Z,63.70
2019-05-14T11:25:59.690Z,65.80
2019-05-14T11:28:29.915Z,63.70
2019-05-14T11:31:01.312Z,65.50
2019-05-14T11:33:31.386Z,67.90
2019-05-14T11:36:01.619Z,66.20
2019-05-14T11:38:36.862Z,68.00
2019-05-14T11:41:03.733Z,67.00
2019-05-14T11:43:33.993Z,64.10
2019-05-14T11:46:04.376Z,68.80
2019-05-14T11:48:34.510Z,64.80
2019-05-14T11:51:04.709Z,66.10
2019-05-14T11:53:34.794Z,64.30
2019-05-14T11:56:05.030Z,65.70
2019-05-14T11:58:35.190Z,63.20
2019-05-14T12:01:05.322Z,63.30
2019-05-14T12:03:35.476Z,63.40
2019-05-14T12:06:05.706Z,62.70
2019-05-14T12:08:35.930Z,64.20
2019-05-14T12:11:08.641Z,64.10
2019-05-14T12:13:39.406Z,65.60
2019-05-14T12:16:09.633Z,63.90
2019-05-14T12:18:41.657Z,62.60
2019-05-14T12:21:11.705Z,64.40
2019-05-14T12:23:41.906Z,62.50
2019-05-14T12:26:12.135Z,63.10
2019-05-14T12:28:42.277Z,61.20
2019-05-14T12:31:12.496Z,63.20
2019-05-14T12:33:42.791Z,61.40
2019-05-14T12:36:12.936Z,60.10
2019-05-14T12:38:43.095Z,61.60
2019-05-14T12:41:13.542Z,58.40
2019-05-14T12:43:44.153Z,59.30
2019-05-14T12:46:14.295Z,58.40
2019-05-14T12:48:45.468Z,59.30
2019-05-14T12:51:18.436Z,58.70
2019-05-14T12:53:48.763Z,61.00
2019-05-14T12:56:19.223Z,58.00
2019-05-14T12:58:49.484Z,59.90
2019-05-14T13:01:20.254Z,59.30
2019-05-14T13:03:51.688Z,58.20
2019-05-14T13:06:21.861Z,60.30
2019-05-14T13:08:51.999Z,58.40
2019-05-14T13:11:23.306Z,57.70
2019-05-14T13:13:53.446Z,53.90
2019-05-14T13:16:23.674Z,55.30
2019-05-14T13:18:53.816Z,54.60
2019-05-14T13:21:24.037Z,54.90
2019-05-14T13:23:54.163Z,57.00
2019-05-14T13:26:24.327Z,54.10
2019-05-14T13:28:54.552Z,54.30
2019-05-14T13:31:24.706Z,54.70
2019-05-14T13:33:54.872Z,52.30
2019-05-14T13:36:25.112Z,56.10
2019-05-14T13:38:55.392Z,54.40
2019-05-14T13:41:25.628Z,55.50
2019-05-14T13:43:58.460Z,55.60
2019-05-14T13:46:28.647Z,55.20
2019-05-14T13:49:00.208Z,55.90
2019-05-14T13:51:33.382Z,55.80
2019-05-14T13:54:02.199Z,56.30
2019-05-14T13:56:32.347Z,57.00
2019-05-14T13:59:02.581Z,57.90
2019-05-14T14:01:32.822Z,60.50
2019-05-14T14:04:10.900Z,57.90
2019-05-14T14:06:34.915Z,59.00
2019-05-14T14:09:12.024Z,58.20
2019-05-14T14:11:38.428Z,60.40
2019-05-14T14:14:09.001Z,56.90
2019-05-14T14:16:39.694Z,54.70
2019-05-14T14:19:09.829Z,55.40
2019-05-14T14:21:40.107Z,55.20
2019-05-14T14:24:10.270Z,56.90
2019-05-14T14:26:40.409Z,56.10
2019-05-14T14:29:10.632Z,56.10
2019-05-14T14:31:41.712Z,54.70
2019-05-14T14:34:12.269Z,57.20
2019-05-14T14:36:42.497Z,57.00
2019-05-14T14:39:12.588Z,57.40
2019-05-14T14:41:44.250Z,56.30
2019-05-14T14:44:14.563Z,58.20
2019-05-14T14:46:44.809Z,56.60
2019-05-14T14:49:14.980Z,58.40
2019-05-14T14:51:45.441Z,56.10
2019-05-14T14:54:16.702Z,56.90
2019-05-14T14:56:48.706Z,59.20
2019-05-14T14:59:19.120Z,56.10
2019-05-14T15:02:13.769Z,58.00
2019-05-14T15:04:43.993Z,56.30
2019-05-14T15:07:14.001Z,57.90
2019-05-14T15:09:44.203Z,57.80
2019-05-14T15:12:14.425Z,57.40
2019-05-14T15:14:44.504Z,59.50
2019-05-14T15:17:14.793Z,61.50
2019-05-14T15:19:45.008Z,63.10
2019-05-14T15:22:15.175Z,62.90
2019-05-14T15:24:45.347Z,63.10
2019-05-14T15:27:15.665Z,61.70
2019-05-14T15:29:48.704Z,62.10
2019-05-14T15:32:19.650Z,63.10
2019-05-14T15:34:50.680Z,63.00
2019-05-14T15:37:21.036Z,63.30
2019-05-14T15:39:51.178Z,65.30
2019-05-14T15:42:21.418Z,65.50
2019-05-14T15:44:55.716Z,66.30
2019-05-14T15:47:23.353Z,66.90
2019-05-14T15:49:53.454Z,68.20
2019-05-14T15:52:23.745Z,69.10
2019-05-14T15:54:53.958Z,70.10
2019-05-14T15:57:24.186Z,70.20
2019-05-14T15:59:54.403Z,72.20
2019-05-14T16:02:24.748Z,73.40
2019-05-14T16:04:54.869Z,73.80
2019-05-14T16:07:25.043Z,72.70
2019-05-14T16:09:55.276Z,71.70
2019-05-14T16:12:28.637Z,71.30
2019-05-14T16:14:57.128Z,71.30
2019-05-14T16:17:30.366Z,72.20
2019-05-14T16:20:00.073Z,71.20
2019-05-14T16:22:30.371Z,71.90
2019-05-14T16:25:01.136Z,72.50
2019-05-14T16:27:31.349Z,67.10
2019-05-14T16:30:01.543Z,66.80
2019-05-14T16:32:32.055Z,69.30
2019-05-14T16:35:02.270Z,72.60
2019-05-14T16:37:32.515Z,72.90
2019-05-14T16:40:02.820Z,72.80
2019-05-14T16:42:34.052Z,72.60
2019-05-14T16:45:04.976Z,72.50
2019-05-14T16:47:35.245Z,72.40
2019-05-14T16:50:08.867Z,70.90
2019-05-14T16:52:42.128Z,72.10
2019-05-14T16:55:22.984Z,73.10
2019-05-14T16:57:43.134Z,73.50
2019-05-14T17:00:13.708Z,74.60
2019-05-14T17:02:43.913Z,74.30
2019-05-14T17:05:14.426Z,75.20
2019-05-14T17:07:44.634Z,74.70
2019-05-14T17:10:14.982Z,74.80
2019-05-14T17:12:53.661Z,75.10
2019-05-14T17:15:18.126Z,75.70
2019-05-14T17:17:48.454Z,74.10
2019-05-14T17:20:19.327Z,73.20
2019-05-14T17:22:50.789Z,74.00
2019-05-14T17:25:26.976Z,73.30
2019-05-14T17:27:53.376Z,73.30
2019-05-14T17:30:23.678Z,74.90
2019-05-14T17:32:53.916Z,75.70
2019-05-14T17:35:24.053Z,75.40
2019-05-14T17:37:54.145Z,76.70
2019-05-14T17:40:24.368Z,77.20
2019-05-14T17:42:54.520Z,77.20
2019-05-14T17:45:28.254Z,78.30
2019-05-14T17:47:58.492Z,78.50
2019-05-14T17:50:29.337Z,78.70
2019-05-14T17:53:00.276Z,79.20
2019-05-14T17:55:43.504Z,79.70
2019-05-14T17:58:03.403Z,81.10
2019-05-14T18:00:33.706Z,82.10
2019-05-14T18:03:04.006Z,83.00
2019-05-14T18:05:34.211Z,84.20
2019-05-14T18:08:04.474Z,84.10
2019-05-14T18:10:34.660Z,84.00
2019-05-14T18:13:04.765Z,83.00
2019-05-14T18:15:34.967Z,83.50
2019-05-14T18:18:05.067Z,84.10
2019-05-14T18:20:35.359Z,83.00
2019-05-14T18:23:05.593Z,83.00
2019-05-14T18:25:35.812Z,83.40
2019-05-14T18:28:09.057Z,84.10
2019-05-14T18:30:38.671Z,85.40
2019-05-14T18:33:09.077Z,85.90
2019-05-14T18:35:45.235Z,87.50
2019-05-14T18:38:11.136Z,86.10
2019-05-14T18:40:41.301Z,85.90
2019-05-14T18:43:11.582Z,85.70
2019-05-14T18:45:41.726Z,85.60
2019-05-14T18:48:11.961Z,83.80
2019-05-14T18:50:42.123Z,85.90
2019-05-14T18:53:13.092Z,86.60
2019-05-14T18:55:43.564Z,87.60
2019-05-14T18:58:13.632Z,88.40
2019-05-14T19:00:43.792Z,89.80
2019-05-14T19:03:14.022Z,90.20
2019-05-14T19:05:44.193Z,89.70
2019-05-14T19:08:14.346Z,89.00
2019-05-14T19:10:44.719Z,89.50
2019-05-14T19:13:15.293Z,89.90
2019-05-14T19:15:48.325Z,90.30
2019-05-14T19:18:19.800Z,90.20
2019-05-14T19:20:49.916Z,90.90
2019-05-14T19:23:20.012Z,91.10
2019-05-14T19:25:50.155Z,91.20
2019-05-14T19:28:20.280Z,91.30
2019-05-14T19:30:50.492Z,91.50
2019-05-14T19:33:20.824Z,91.40
2019-05-14T19:35:51.046Z,91.50
2019-05-14T19:38:21.139Z,91.40
2019-05-14T19:40:51.306Z,91.40
2019-05-14T19:43:21.487Z,91.40
2019-05-14T19:45:52.548Z,91.80
2019-05-14T19:48:22.769Z,92.00
2019-05-14T19:50:53.056Z,92.70
2019-05-14T19:53:23.379Z,93.00
2019-05-14T19:55:53.516Z,93.80
2019-05-14T19:58:23.822Z,94.00
2019-05-14T20:00:53.951Z,94.50
2019-05-14T20:03:24.245Z,94.80
2019-05-14T20:05:54.380Z,94.80
2019-05-14T20:08:25.708Z,95.60
2019-05-14T20:10:55.846Z,96.40
2019-05-14T20:13:28.528Z,97.20
2019-05-14T20:15:59.069Z,98.20
2019-05-14T20:18:29.415Z,98.00
2019-05-14T20:20:59.640Z,98.90
2019-05-14T20:23:29.777Z,99.80
2019-05-14T20:25:59.876Z,99.10
2019-05-14T20:28:30.091Z,98.60
2019-05-14T20:31:01.698Z,98.90
2019-05-14T20:33:31.863Z,99.80
2019-05-14T20:36:02.005Z,98.70
2019-05-14T20:38:32.070Z,98.20
2019-05-14T20:41:02.305Z,98.10
2019-05-14T20:43:32.527Z,98.90
2019-05-14T20:46:02.824Z,99.10
2019-05-14T20:48:32.909Z,98.70
2019-05-14T20:51:03.062Z,97.90
2019-05-14T20:53:34.367Z,97.00
2019-05-14T20:56:04.522Z,98.10
2019-05-14T20:58:34.692Z,98.30
2019-05-14T21:01:05.155Z,98.20
2019-05-14T21:03:35.303Z,98.90
2019-05-14T21:06:05.611Z,98.30
2019-05-14T21:08:37.833Z,98.50
2019-05-14T21:11:08.300Z,98.40
2019-05-14T21:13:38.660Z,99.90
2019-05-14T21:16:10.871Z,99.80
2019-05-14T21:18:41.286Z,99.90
2019-05-14T21:21:11.611Z,99.70
2019-05-14T21:23:41.762Z,99.80
2019-05-14T21:26:11.920Z,99.90
2019-05-14T21:28:42.000Z,99.90
2019-05-14T21:31:13.154Z,99.80
2019-05-14T21:33:43.280Z,99.60
2019-05-14T21:36:13.535Z,99.00
2019-05-14T21:38:43.669Z,99.20
2019-05-14T21:41:13.894Z,99.20
2019-05-14T21:43:44.048Z,99.70
2019-05-14T21:46:14.275Z,99.90
2019-05-14T21:48:44.419Z,99.90
2019-05-14T21:51:14.497Z,99.80
2019-05-14T21:53:44.650Z,99.90
2019-05-14T21:56:14.905Z,99.60
2019-05-14T21:58:45.025Z,99.40
2019-05-14T22:01:15.409Z,99.30
2019-05-14T22:03:45.654Z,99.50
2019-05-14T22:06:18.138Z,99.20
2019-05-14T22:08:48.773Z,99.50
2019-05-14T22:11:19.150Z,99.50
2019-05-14T22:13:49.746Z,99.30
2019-05-14T22:16:21.029Z,99.30
2019-05-14T22:18:51.203Z,99.70
2019-05-14T22:21:21.422Z,99.60
2019-05-14T22:23:52.572Z,99.50
2019-05-14T22:26:22.639Z,99.40
2019-05-14T22:28:52.801Z,99.90
2019-05-14T22:31:22.972Z,99.90
2019-05-14T22:33:53.128Z,99.50
2019-05-14T22:36:24.416Z,99.60
2019-05-14T22:38:54.581Z,99.40
2019-05-14T22:41:24.794Z,98.90
2019-05-14T22:43:56.888Z,99.40
2019-05-14T22:46:26.854Z,99.90
2019-05-14T22:48:58.683Z,99.80
2019-05-14T22:51:33.057Z,99.70
2019-05-14T22:54:01.815Z,99.30
2019-05-14T22:56:32.025Z,99.50
2019-05-14T22:59:02.251Z,99.90
2019-05-14T23:01:32.461Z,99.40
2019-05-14T23:04:02.711Z,99.60
2019-05-14T23:06:32.937Z,99.90
2019-05-14T23:09:04.752Z,99.90
2019-05-14T23:11:35.062Z,99.90
2019-05-14T23:14:05.300Z,99.90
2019-05-14T23:16:39.205Z,99.90
2019-05-14T23:19:07.988Z,99.90
2019-05-14T23:21:39.139Z,99.90
2019-05-14T23:24:09.437Z,99.90
2019-05-14T23:26:39.764Z,99.90
2019-05-14T23:29:09.910Z,99.90
2019-05-14T23:31:40.152Z,99.90
2019-05-14T23:34:10.434Z,99.90
2019-05-14T23:36:40.602Z,99.90
2019-05-14T23:39:10.722Z,99.90
2019-05-14T23:41:40.819Z,99.90
2019-05-14T23:44:11.026Z,99.90
2019-05-14T23:46:41.331Z,99.90
2019-05-14T23:49:12.140Z,99.90
2019-05-14T23:51:42.396Z,99.90
2019-05-14T23:54:12.550Z,99.90
2019-05-14T23:56:42.687Z,99.90
2019-05-14T23:59:12.993Z,99.90
